createdAt,value
2018-11-25T00:02:11.662Z,55.63
2018-11-25T00:04:41.273Z,53.03
2018-11-25T00:07:11.185Z,49.50
2018-11-25T00:09:41.293Z,52.67
2018-11-25T00:12:11.213Z,55.73
2018-11-25T00:14:41.229Z,53.67
2018-11-25T00:17:11.151Z,56.13
2018-11-25T00:19:40.965Z,58.53
2018-11-25T00:22:11.386Z,57.13
2018-11-25T00:24:41.222Z,57.43
2018-11-25T00:27:11.218Z,57.67
2018-11-25T00:29:41.126Z,52.57
2018-11-25T00:32:10.950Z,59.20
2018-11-25T00:34:40.765Z,59.70
2018-11-25T00:37:10.452Z,59.10
2018-11-25T00:39:40.898Z,54.87
2018-11-25T00:42:10.819Z,58.33
2018-11-25T00:44:40.824Z,53.40
2018-11-25T00:47:10.724Z,59.60
2018-11-25T00:49:40.551Z,55.90
2018-11-25T00:52:10.261Z,54.43
2018-11-25T00:54:40.290Z,53.87
2018-11-25T00:57:10.480Z,51.00
2018-11-25T00:59:40.623Z,53.03
2018-11-25T01:02:10.822Z,53.80
2018-11-25T01:04:40.634Z,56.57
2018-11-25T01:07:10.569Z,53.17
2018-11-25T01:09:40.460Z,59.07
2018-11-25T01:12:10.479Z,57.80
2018-11-25T01:14:40.812Z,55.43
2018-11-25T01:17:10.838Z,55.43
2018-11-25T01:19:40.739Z,54.97
2018-11-25T01:22:10.560Z,49.77
2018-11-25T01:24:40.466Z,53.23
2018-11-25T01:27:10.476Z,52.27
2018-11-25T01:29:40.389Z,53.03
2018-11-25T01:32:10.407Z,51.00
2018-11-25T01:34:40.439Z,51.20
2018-11-25T01:37:10.257Z,51.53
2018-11-25T01:39:40.378Z,52.30
2018-11-25T01:42:10.165Z,54.43
2018-11-25T01:44:40.191Z,49.43
2018-11-25T01:47:10.091Z,56.33
2018-11-25T01:49:40.111Z,57.50
2018-11-25T01:52:09.932Z,53.10
2018-11-25T01:54:39.961Z,53.47
2018-11-25T01:57:09.646Z,58.03
2018-11-25T01:59:39.581Z,61.33
2018-11-25T02:02:09.477Z,60.47
2018-11-25T02:04:39.312Z,54.87
2018-11-25T02:07:09.330Z,53.43
2018-11-25T02:09:39.318Z,55.07
2018-11-25T02:12:09.031Z,57.03
2018-11-25T02:14:39.272Z,53.40
2018-11-25T02:17:09.391Z,57.23
2018-11-25T02:19:39.193Z,56.47
2018-11-25T02:22:10.136Z,52.03
2018-11-25T02:24:39.950Z,55.50
2018-11-25T02:27:09.742Z,53.23
2018-11-25T02:29:39.874Z,52.87
2018-11-25T02:32:09.467Z,52.40
2018-11-25T02:34:39.194Z,51.90
2018-11-25T02:37:09.914Z,51.43
2018-11-25T02:39:39.952Z,58.43
2018-11-25T02:42:09.957Z,61.20
2018-11-25T02:44:39.873Z,54.07
2018-11-25T02:47:09.673Z,55.67
2018-11-25T02:49:39.484Z,56.93
2018-11-25T02:52:09.402Z,57.83
2018-11-25T02:54:41.371Z,59.03
2018-11-25T02:57:11.079Z,62.70
2018-11-25T02:59:40.775Z,58.47
2018-11-25T03:02:10.277Z,57.53
2018-11-25T03:04:40.021Z,56.90
2018-11-25T03:07:09.922Z,55.13
2018-11-25T03:09:39.816Z,52.13
2018-11-25T03:12:09.435Z,55.93
2018-11-25T03:14:39.034Z,55.30
2018-11-25T03:17:08.978Z,58.53
2018-11-25T03:19:38.858Z,50.60
2018-11-25T03:22:08.770Z,50.53
2018-11-25T03:24:38.908Z,50.97
2018-11-25T03:27:08.929Z,45.93
2018-11-25T03:29:38.726Z,55.00
2018-11-25T03:32:08.529Z,47.63
2018-11-25T03:34:38.559Z,48.77
2018-11-25T03:37:08.374Z,45.20
2018-11-25T03:39:38.073Z,46.93
2018-11-25T03:42:08.209Z,50.27
2018-11-25T03:44:38.305Z,48.10
2018-11-25T03:47:08.021Z,46.87
2018-11-25T03:49:37.725Z,50.37
2018-11-25T03:52:07.559Z,48.57
2018-11-25T03:54:38.801Z,48.87
2018-11-25T03:57:08.698Z,42.37
2018-11-25T03:59:38.718Z,44.43
2018-11-25T04:02:08.419Z,43.37
2018-11-25T04:04:38.034Z,43.07
2018-11-25T04:07:08.034Z,43.30
2018-11-25T04:09:38.299Z,41.70
2018-11-25T04:12:07.877Z,45.53
2018-11-25T04:14:37.792Z,43.37
2018-11-25T04:17:08.723Z,39.27
2018-11-25T04:19:38.641Z,39.37
2018-11-25T04:22:08.450Z,39.37
2018-11-25T04:24:38.669Z,41.63
2018-11-25T04:27:08.485Z,40.87
2018-11-25T04:29:38.830Z,45.30
2018-11-25T04:32:09.144Z,41.93
2018-11-25T04:34:39.351Z,40.87
2018-11-25T04:37:09.366Z,41.70
2018-11-25T04:39:39.283Z,43.17
2018-11-25T04:42:09.929Z,39.00
2018-11-25T04:44:39.946Z,44.27
2018-11-25T04:47:09.871Z,37.13
2018-11-25T04:49:39.762Z,35.80
2018-11-25T04:52:09.805Z,37.30
2018-11-25T04:54:39.381Z,39.27
2018-11-25T04:57:08.988Z,36.20
2018-11-25T04:59:38.513Z,42.17
2018-11-25T05:02:08.219Z,35.47
2018-11-25T05:04:37.812Z,38.40
2018-11-25T05:07:08.030Z,34.63
2018-11-25T05:09:37.742Z,36.53
2018-11-25T05:12:07.452Z,34.83
2018-11-25T05:14:37.051Z,35.27
2018-11-25T05:17:07.380Z,36.80
2018-11-25T05:19:37.312Z,34.23
2018-11-25T05:22:07.002Z,37.30
2018-11-25T05:24:36.723Z,35.50
2018-11-25T05:27:06.420Z,36.00
2018-11-25T05:29:36.225Z,32.97
2018-11-25T05:32:06.371Z,32.87
2018-11-25T05:34:35.855Z,33.43
2018-11-25T05:37:05.460Z,34.47
2018-11-25T05:39:35.479Z,34.77
2018-11-25T05:42:05.188Z,34.07
2018-11-25T05:44:34.797Z,33.20
2018-11-25T05:47:05.038Z,31.87
2018-11-25T05:49:36.752Z,29.80
2018-11-25T05:52:04.965Z,32.30
2018-11-25T05:54:34.758Z,31.53
2018-11-25T05:57:04.466Z,30.67
2018-11-25T05:59:34.428Z,29.73
2018-11-25T06:02:04.412Z,28.13
2018-11-25T06:04:34.631Z,30.40
2018-11-25T06:07:04.532Z,28.13
2018-11-25T06:09:34.981Z,26.93
2018-11-25T06:12:04.478Z,29.23
2018-11-25T06:14:34.603Z,30.67
2018-11-25T06:17:04.394Z,29.07
2018-11-25T06:19:34.341Z,30.90
2018-11-25T06:22:04.642Z,29.60
2018-11-25T06:24:34.653Z,28.03
2018-11-25T06:27:04.261Z,27.53
2018-11-25T06:29:34.272Z,27.97
2018-11-25T06:32:04.086Z,28.33
2018-11-25T06:34:33.802Z,31.70
2018-11-25T06:37:03.814Z,27.77
2018-11-25T06:39:33.930Z,25.83
2018-11-25T06:42:03.861Z,27.73
2018-11-25T06:44:33.780Z,28.33
2018-11-25T06:47:04.083Z,29.27
2018-11-25T06:49:33.998Z,26.00
2018-11-25T06:52:03.837Z,26.37
2018-11-25T06:54:33.618Z,29.00
2018-11-25T06:57:03.126Z,26.80
2018-11-25T06:59:32.835Z,26.07
2018-11-25T07:02:02.959Z,26.83
2018-11-25T07:04:32.872Z,25.57
2018-11-25T07:07:02.679Z,25.90
2018-11-25T07:09:32.797Z,27.70
2018-11-25T07:12:02.814Z,27.77
2018-11-25T07:14:32.316Z,27.23
2018-11-25T07:17:11.028Z,25.13
2018-11-25T07:19:42.393Z,25.73
2018-11-25T07:22:12.406Z,26.13
2018-11-25T07:24:42.016Z,26.03
2018-11-25T07:27:12.561Z,30.43
2018-11-25T07:29:43.370Z,28.60
2018-11-25T07:32:14.035Z,28.27
2018-11-25T07:34:45.049Z,25.87
2018-11-25T07:37:17.761Z,27.57
2018-11-25T07:39:47.662Z,30.77
2018-11-25T07:42:17.882Z,30.50
2018-11-25T07:44:47.472Z,31.83
2018-11-25T07:47:17.381Z,33.77
2018-11-25T07:49:47.311Z,31.53
2018-11-25T07:52:17.624Z,29.50
2018-11-25T07:54:47.952Z,32.93
2018-11-25T07:57:18.272Z,31.60
2018-11-25T07:59:50.444Z,29.67
2018-11-25T08:02:20.684Z,33.00
2018-11-25T08:04:51.004Z,32.60
2018-11-25T08:07:20.924Z,36.90
2018-11-25T08:09:50.932Z,38.47
2018-11-25T08:12:20.843Z,36.83
2018-11-25T08:14:50.852Z,36.13
2018-11-25T08:17:20.684Z,37.27
2018-11-25T08:19:50.804Z,37.73
2018-11-25T08:22:20.597Z,34.80
2018-11-25T08:24:50.491Z,35.40
2018-11-25T08:27:20.932Z,34.40
2018-11-25T08:29:50.964Z,36.33
2018-11-25T08:32:20.972Z,35.23
2018-11-25T08:34:50.804Z,32.73
2018-11-25T08:37:21.612Z,37.93
2018-11-25T08:39:51.415Z,33.37
2018-11-25T08:42:21.333Z,37.77
2018-11-25T08:44:51.251Z,36.20
2018-11-25T08:47:21.284Z,39.53
2018-11-25T08:49:51.292Z,42.43
2018-11-25T08:52:21.093Z,39.60
2018-11-25T08:54:50.924Z,41.37
2018-11-25T08:57:20.931Z,40.67
2018-11-25T08:59:51.452Z,39.47
2018-11-25T09:02:21.484Z,43.27
2018-11-25T09:04:51.892Z,42.33
2018-11-25T09:07:21.812Z,49.27
2018-11-25T09:09:51.932Z,42.67
2018-11-25T09:12:21.964Z,46.87
2018-11-25T09:14:51.971Z,44.97
2018-11-25T09:17:22.405Z,41.93
2018-11-25T09:19:52.324Z,41.63
2018-11-25T09:22:22.732Z,42.67
2018-11-25T09:24:52.964Z,40.17
2018-11-25T09:27:23.044Z,38.67
2018-11-25T09:29:53.292Z,36.43
2018-11-25T09:32:23.412Z,38.40
2018-11-25T09:34:53.932Z,37.33
2018-11-25T09:37:24.291Z,33.47
2018-11-25T09:39:54.604Z,39.00
2018-11-25T09:42:24.924Z,41.63
2018-11-25T09:44:54.932Z,42.10
2018-11-25T09:47:25.163Z,42.50
2018-11-25T09:49:55.375Z,38.00
2018-11-25T09:52:25.372Z,35.70
2018-11-25T09:54:55.933Z,34.93
2018-11-25T09:57:26.131Z,37.30
2018-11-25T09:59:56.164Z,37.50
2018-11-25T10:02:26.373Z,35.20
2018-11-25T10:04:56.611Z,36.13
2018-11-25T10:07:26.493Z,34.07
2018-11-25T10:09:56.732Z,35.87
2018-11-25T10:12:27.292Z,40.53
2018-11-25T10:14:57.374Z,67.37
2018-11-25T10:17:27.190Z,46.77
2018-11-25T10:19:57.022Z,52.27
2018-11-25T10:22:27.030Z,58.40
2018-11-25T10:24:57.019Z,29.90
2018-11-25T10:27:26.836Z,34.00
2018-11-25T10:29:56.747Z,31.97
2018-11-25T10:32:27.058Z,30.57
2018-11-25T10:34:57.089Z,27.63
2018-11-25T10:37:26.901Z,24.77
2018-11-25T10:39:56.931Z,19.43
2018-11-25T10:42:26.929Z,30.57
2018-11-25T10:44:57.369Z,29.57
2018-11-25T10:47:27.982Z,27.80
2018-11-25T10:49:57.809Z,28.80
2018-11-25T10:52:27.713Z,30.53
2018-11-25T10:54:57.531Z,26.20
2018-11-25T10:57:27.127Z,28.10
2018-11-25T10:59:57.252Z,30.03
2018-11-25T11:02:30.957Z,31.47
2018-11-25T11:05:04.452Z,29.83
2018-11-25T11:07:39.067Z,27.37
2018-11-25T11:10:09.806Z,28.67
2018-11-25T11:12:39.757Z,20.10
2018-11-25T11:15:11.286Z,19.20
2018-11-25T11:17:40.982Z,17.43
2018-11-25T11:20:11.097Z,15.00
2018-11-25T11:22:40.706Z,11.67
2018-11-25T11:25:10.416Z,12.80
2018-11-25T11:27:40.023Z,13.27
2018-11-25T11:30:10.570Z,15.47
2018-11-25T11:32:42.415Z,15.47
2018-11-25T11:35:22.072Z,18.40
2018-11-25T11:37:53.400Z,20.00
2018-11-25T11:40:25.038Z,17.33
2018-11-25T11:42:54.981Z,19.43
2018-11-25T11:45:25.195Z,17.43
2018-11-25T11:47:56.130Z,17.40
2018-11-25T11:50:26.566Z,14.37
2018-11-25T11:52:56.367Z,15.73
2018-11-25T11:55:26.181Z,12.37
2018-11-25T11:57:56.617Z,13.20
2018-11-25T12:00:28.021Z,11.63
2018-11-25T12:02:57.874Z,12.40
2018-11-25T12:05:29.026Z,10.53
2018-11-25T12:07:58.828Z,11.33
2018-11-25T12:10:29.455Z,11.40
2018-11-25T12:13:00.393Z,12.47
2018-11-25T12:15:31.214Z,11.13
2018-11-25T12:18:01.858Z,11.70
2018-11-25T12:20:33.519Z,10.67
2018-11-25T12:23:03.030Z,10.73
2018-11-25T12:25:32.839Z,10.97
2018-11-25T12:28:09.036Z,11.43
2018-11-25T12:30:41.991Z,11.17
2018-11-25T12:33:12.915Z,9.97
2018-11-25T12:35:42.840Z,10.57
2018-11-25T12:38:13.457Z,9.50
2018-11-25T12:40:44.028Z,12.07
2018-11-25T12:43:14.826Z,11.63
2018-11-25T12:45:44.637Z,13.63
2018-11-25T12:48:14.140Z,12.23
2018-11-25T12:50:50.749Z,13.53
2018-11-25T12:53:21.970Z,13.00
2018-11-25T12:55:54.130Z,13.10
2018-11-25T12:58:26.059Z,12.50
2018-11-25T13:00:57.536Z,12.83
2018-11-25T13:03:27.858Z,12.57
2018-11-25T13:05:58.797Z,12.77
2018-11-25T13:08:40.768Z,13.17
2018-11-25T13:11:11.529Z,14.17
2018-11-25T13:13:52.029Z,12.43
2018-11-25T13:16:24.669Z,13.73
2018-11-25T13:18:56.840Z,13.13
2018-11-25T13:21:29.718Z,12.33
2018-11-25T13:24:01.376Z,13.20
2018-11-25T13:26:33.550Z,11.27
2018-11-25T13:29:04.377Z,12.40
2018-11-25T13:31:34.597Z,11.40
2018-11-25T13:34:04.819Z,12.50
2018-11-25T13:36:34.841Z,15.50
2018-11-25T13:39:06.291Z,13.73
2018-11-25T13:41:36.932Z,14.87
2018-11-25T13:44:07.126Z,15.17
2018-11-25T13:46:37.564Z,16.27
2018-11-25T13:49:08.222Z,17.17
2018-11-25T13:51:38.728Z,26.27
2018-11-25T13:54:08.636Z,26.80
2018-11-25T13:56:38.034Z,19.13
2018-11-25T13:59:07.958Z,31.37
2018-11-25T14:01:37.570Z,21.67
2018-11-25T14:04:08.083Z,26.90
2018-11-25T14:06:37.909Z,13.90
2018-11-25T14:09:10.479Z,29.10
2018-11-25T14:11:40.287Z,35.13
2018-11-25T14:14:10.210Z,51.60
2018-11-25T14:16:40.119Z,38.57
2018-11-25T14:19:10.437Z,35.60
2018-11-25T14:21:41.432Z,32.07
2018-11-25T14:24:11.704Z,41.10
2018-11-25T14:26:45.721Z,37.23
2018-11-25T14:29:15.831Z,64.90
2018-11-25T14:31:46.359Z,59.73
2018-11-25T14:34:16.378Z,163.47
2018-11-25T14:36:46.197Z,167.60
2018-11-25T14:39:16.310Z,221.33
2018-11-25T14:41:46.015Z,238.10
2018-11-25T14:44:17.782Z,189.83
2018-11-25T14:46:48.095Z,194.00
2018-11-25T14:49:19.246Z,173.33
2018-11-25T14:51:49.569Z,172.67
2018-11-25T14:54:20.516Z,219.03
2018-11-25T14:56:52.023Z,327.90
2018-11-25T14:59:23.920Z,310.07
2018-11-25T15:01:56.031Z,299.20
2018-11-25T15:04:27.739Z,252.27
2018-11-25T15:06:59.897Z,225.17
2018-11-25T15:09:30.125Z,180.47
2018-11-25T15:12:00.967Z,166.13
2018-11-25T15:14:31.935Z,178.50
2018-11-25T15:17:02.068Z,155.13
2018-11-25T15:19:38.487Z,180.60
2018-11-25T15:22:08.507Z,142.53
2018-11-25T15:24:39.339Z,135.47
2018-11-25T15:27:09.879Z,147.23
2018-11-25T15:29:42.017Z,146.20
2018-11-25T15:32:12.986Z,130.13
2018-11-25T15:34:45.952Z,144.00
2018-11-25T15:37:19.593Z,153.77
2018-11-25T15:39:50.405Z,130.50
2018-11-25T15:42:21.348Z,146.13
2018-11-25T15:44:53.022Z,98.93
2018-11-25T15:47:23.833Z,104.33
2018-11-25T15:49:54.347Z,125.87
2018-11-25T15:52:25.082Z,144.63
2018-11-25T15:54:55.303Z,126.57
2018-11-25T15:57:25.831Z,107.60
2018-11-25T15:59:55.643Z,109.67
2018-11-25T16:02:26.490Z,103.53
2018-11-25T16:04:57.732Z,119.93
2018-11-25T16:07:28.356Z,113.73
2018-11-25T16:10:01.125Z,120.23
2018-11-25T16:12:32.386Z,109.77
2018-11-25T16:15:04.034Z,114.33
2018-11-25T16:17:35.394Z,113.27
2018-11-25T16:20:08.382Z,115.90
2018-11-25T16:22:41.873Z,116.67
2018-11-25T16:25:14.146Z,132.50
2018-11-25T16:27:44.375Z,150.80
2018-11-25T16:30:32.055Z,137.97
2018-11-25T16:33:03.274Z,123.03
2018-11-25T16:35:34.587Z,175.13
2018-11-25T16:38:05.348Z,146.13
2018-11-25T16:40:35.779Z,152.03
2018-11-25T16:43:06.386Z,182.43
2018-11-25T16:45:37.026Z,134.97
2018-11-25T16:48:08.033Z,142.27
2018-11-25T16:50:39.511Z,132.80
2018-11-25T16:53:13.403Z,167.57
2018-11-25T16:55:43.955Z,157.03
2018-11-25T16:58:14.267Z,132.60
2018-11-25T17:00:44.490Z,128.00
2018-11-25T17:03:15.818Z,128.07
2018-11-25T17:05:46.986Z,121.30
2018-11-25T17:08:18.026Z,129.37
2018-11-25T17:10:48.733Z,151.57
2018-11-25T17:13:18.658Z,154.90
2018-11-25T17:15:48.585Z,178.03
2018-11-25T17:18:18.585Z,182.07
2018-11-25T17:20:48.569Z,145.00
2018-11-25T17:23:18.019Z,135.80
2018-11-25T17:25:47.925Z,141.13
2018-11-25T17:28:17.937Z,139.37
2018-11-25T17:30:48.804Z,206.17
2018-11-25T17:33:19.310Z,223.60
2018-11-25T17:35:49.330Z,183.33
2018-11-25T17:38:19.746Z,150.43
2018-11-25T17:40:49.877Z,144.07
2018-11-25T17:43:20.506Z,205.80
2018-11-25T17:45:50.721Z,170.90
2018-11-25T17:48:20.834Z,164.23
2018-11-25T17:50:51.066Z,140.87
2018-11-25T17:53:21.492Z,151.67
2018-11-25T17:55:51.914Z,144.47
2018-11-25T17:58:22.129Z,117.10
2018-11-25T18:00:55.833Z,98.27
2018-11-25T18:03:26.253Z,74.53
2018-11-25T18:05:56.175Z,53.63
2018-11-25T18:08:26.306Z,52.17
2018-11-25T18:10:56.019Z,53.50
2018-11-25T18:13:26.822Z,54.97
2018-11-25T18:15:57.273Z,125.00
2018-11-25T18:18:31.266Z,98.83
2018-11-25T18:21:02.240Z,78.50
2018-11-25T18:23:32.642Z,89.23
2018-11-25T18:26:05.211Z,86.03
2018-11-25T18:28:35.955Z,92.13
2018-11-25T18:31:06.282Z,93.40
2018-11-25T18:33:36.191Z,75.87
2018-11-25T18:36:06.940Z,69.30
2018-11-25T18:38:37.234Z,87.40
2018-11-25T18:41:11.628Z,82.57
2018-11-25T18:43:42.376Z,106.37
2018-11-25T18:46:14.554Z,81.47
2018-11-25T18:48:45.934Z,90.43
2018-11-25T18:51:15.507Z,103.80
2018-11-25T18:53:45.487Z,125.73
2018-11-25T18:56:15.455Z,124.83
2018-11-25T18:58:45.579Z,109.50
2018-11-25T19:01:16.831Z,100.23
2018-11-25T19:03:47.352Z,78.97
2018-11-25T19:06:17.620Z,99.33
2018-11-25T19:08:47.585Z,65.40
2018-11-25T19:11:17.595Z,108.70
2018-11-25T19:13:48.338Z,113.90
2018-11-25T19:16:18.654Z,162.63
2018-11-25T19:18:48.553Z,121.33
2018-11-25T19:21:18.809Z,111.47
2018-11-25T19:23:49.143Z,72.80
2018-11-25T19:26:19.130Z,80.30
2018-11-25T19:28:49.143Z,66.00
2018-11-25T19:31:18.866Z,68.77
2018-11-25T19:33:48.754Z,66.83
2018-11-25T19:36:18.482Z,67.00
2018-11-25T19:38:48.618Z,58.50
2018-11-25T19:41:18.922Z,70.83
2018-11-25T19:43:48.947Z,70.10
2018-11-25T19:46:19.562Z,71.17
2018-11-25T19:48:49.476Z,56.27
2018-11-25T19:51:19.909Z,59.27
2018-11-25T19:53:49.946Z,56.13
2018-11-25T19:56:19.627Z,60.83
2018-11-25T19:58:49.950Z,60.03
2018-11-25T20:01:19.866Z,69.73
2018-11-25T20:03:49.698Z,74.07
2018-11-25T20:06:19.373Z,66.20
2018-11-25T20:08:49.026Z,58.50
2018-11-25T20:11:18.915Z,54.10
2018-11-25T20:13:48.814Z,56.37
2018-11-25T20:16:22.545Z,46.53
2018-11-25T20:18:52.546Z,45.53
2018-11-25T20:21:33.196Z,43.73
2018-11-25T20:24:03.109Z,38.30
2018-11-25T20:26:33.146Z,34.50
2018-11-25T20:29:04.594Z,34.43
2018-11-25T20:31:35.122Z,35.10
2018-11-25T20:34:07.218Z,35.27
2018-11-25T20:36:37.939Z,34.77
2018-11-25T20:39:28.826Z,34.67
2018-11-25T20:42:00.468Z,35.87
2018-11-25T20:44:31.919Z,35.27
2018-11-25T20:47:06.134Z,35.37
2018-11-25T20:49:38.308Z,35.77
2018-11-25T20:52:13.666Z,37.77
2018-11-25T20:54:45.917Z,39.50
2018-11-25T20:57:19.538Z,41.43
2018-11-25T20:59:54.978Z,42.63
2018-11-25T21:02:29.328Z,46.90
2018-11-25T21:04:57.026Z,47.87
2018-11-25T21:07:27.466Z,45.90
2018-11-25T21:10:02.066Z,43.33
2018-11-25T21:12:33.146Z,44.80
2018-11-25T21:15:19.026Z,42.23
2018-11-25T21:17:51.187Z,47.03
2018-11-25T21:20:22.666Z,68.57
2018-11-25T21:22:52.857Z,83.47
2018-11-25T21:25:25.034Z,106.10
2018-11-25T21:28:00.898Z,94.47
2018-11-25T21:31:00.422Z,85.40
2018-11-25T21:33:58.386Z,80.87
2018-11-25T21:36:40.467Z,82.37
2018-11-25T21:39:13.979Z,85.43
2018-11-25T21:41:44.385Z,87.70
2018-11-25T21:44:14.679Z,86.90
2018-11-25T21:46:44.858Z,81.33
2018-11-25T21:49:15.378Z,68.67
2018-11-25T21:51:45.578Z,65.37
2018-11-25T21:54:16.019Z,63.57
2018-11-25T21:56:46.413Z,45.10
2018-11-25T21:59:16.294Z,42.13
2018-11-25T22:01:46.378Z,46.03
2018-11-25T22:04:16.783Z,46.97
2018-11-25T22:06:47.338Z,43.37
2018-11-25T22:09:17.669Z,46.00
2018-11-25T22:11:47.378Z,45.03
2018-11-25T22:14:17.866Z,43.27
2018-11-25T22:16:48.018Z,47.67
2018-11-25T22:19:18.026Z,47.03
2018-11-25T22:21:47.829Z,47.47
2018-11-25T22:24:17.638Z,47.03
2018-11-25T22:26:47.566Z,49.87
2018-11-25T22:29:17.873Z,47.77
2018-11-25T22:31:47.598Z,48.60
2018-11-25T22:34:17.593Z,48.33
2018-11-25T22:36:47.918Z,85.83
2018-11-25T22:39:17.737Z,90.90
2018-11-25T22:41:47.541Z,75.63
2018-11-25T22:44:17.454Z,146.27
2018-11-25T22:46:47.365Z,96.03
2018-11-25T22:49:16.882Z,64.93
2018-11-25T22:51:46.786Z,78.43
2018-11-25T22:54:16.826Z,58.23
2018-11-25T22:56:46.719Z,52.17
2018-11-25T22:59:16.426Z,55.40
2018-11-25T23:01:46.022Z,54.07
2018-11-25T23:04:20.346Z,51.60
2018-11-25T23:06:54.574Z,54.17
2018-11-25T23:09:24.682Z,59.63
2018-11-25T23:11:54.487Z,58.53
2018-11-25T23:14:24.507Z,66.03
2018-11-25T23:16:54.425Z,63.13
2018-11-25T23:19:24.034Z,64.50
2018-11-25T23:21:53.868Z,67.80
2018-11-25T23:24:23.780Z,72.70
2018-11-25T23:26:53.893Z,68.47
2018-11-25T23:29:23.484Z,67.13
2018-11-25T23:31:53.212Z,69.47
2018-11-25T23:34:22.922Z,69.53
2018-11-25T23:36:52.820Z,61.87
2018-11-25T23:39:22.960Z,64.73
2018-11-25T23:41:52.770Z,66.97
2018-11-25T23:44:22.374Z,77.27
2018-11-25T23:46:52.280Z,100.17
2018-11-25T23:49:22.020Z,90.57
2018-11-25T23:51:51.809Z,115.10
2018-11-25T23:54:22.020Z,142.37
2018-11-25T23:56:51.930Z,104.17
2018-11-25T23:59:21.528Z,92.07
